sensor_id;sensor_type;location;lat;lon;timestamp;P1;durP1;ratioP1;P2;durP2;ratioP2
23658;SDS011;12006;42.666;23.326;2024-03-08T00:00:43;4.40;;;2.90;;
23658;SDS011;12006;42.666;23.326;2024-03-08T00:04:10;3.77;;;2.80;;
23658;SDS011;12006;42.666;23.326;2024-03-08T00:07:37;3.77;;;2.00;;
23658;SDS011;12006;42.666;23.326;2024-03-08T00:11:01;3.30;;;2.73;;
23658;SDS011;12006;42.666;23.326;2024-03-08T00:14:25;3.50;;;2.67;;
23658;SDS011;12006;42.666;23.326;2024-03-08T00:17:49;3.43;;;2.37;;
23658;SDS011;12006;42.666;23.326;2024-03-08T00:21:14;2.67;;;2.40;;
23658;SDS011;12006;42.666;23.326;2024-03-08T00:24:38;3.30;;;2.10;;
23658;SDS011;12006;42.666;23.326;2024-03-08T00:28:02;2.63;;;2.33;;
23658;SDS011;12006;42.666;23.326;2024-03-08T00:31:26;4.03;;;2.40;;
23658;SDS011;12006;42.666;23.326;2024-03-08T00:34:50;3.40;;;2.10;;
23658;SDS011;12006;42.666;23.326;2024-03-08T00:38:14;3.17;;;2.47;;
23658;SDS011;12006;42.666;23.326;2024-03-08T00:41:38;2.53;;;2.33;;
23658;SDS011;12006;42.666;23.326;2024-03-08T00:45:03;2.70;;;1.90;;
23658;SDS011;12006;42.666;23.326;2024-03-08T00:48:27;2.87;;;1.83;;
23658;SDS011;12006;42.666;23.326;2024-03-08T00:51:51;2.80;;;2.00;;
23658;SDS011;12006;42.666;23.326;2024-03-08T00:55:15;2.03;;;1.40;;
23658;SDS011;12006;42.666;23.326;2024-03-08T00:58:39;1.77;;;1.23;;
23658;SDS011;12006;42.666;23.326;2024-03-08T01:02:03;1.70;;;1.37;;
23658;SDS011;12006;42.666;23.326;2024-03-08T01:05:28;1.20;;;1.03;;
23658;SDS011;12006;42.666;23.326;2024-03-08T01:08:52;1.30;;;1.17;;
23658;SDS011;12006;42.666;23.326;2024-03-08T01:12:16;2.23;;;1.40;;
23658;SDS011;12006;42.666;23.326;2024-03-08T01:15:40;1.63;;;1.37;;
23658;SDS011;12006;42.666;23.326;2024-03-08T01:19:03;1.50;;;1.20;;
23658;SDS011;12006;42.666;23.326;2024-03-08T01:22:29;1.57;;;1.27;;
23658;SDS011;12006;42.666;23.326;2024-03-08T01:25:54;1.73;;;1.40;;
23658;SDS011;12006;42.666;23.326;2024-03-08T01:29:18;1.53;;;1.30;;
23658;SDS011;12006;42.666;23.326;2024-03-08T01:32:42;1.83;;;1.47;;
23658;SDS011;12006;42.666;23.326;2024-03-08T01:36:07;2.03;;;1.70;;
23658;SDS011;12006;42.666;23.326;2024-03-08T01:39:31;1.40;;;1.30;;
23658;SDS011;12006;42.666;23.326;2024-03-08T01:42:55;2.00;;;1.80;;
23658;SDS011;12006;42.666;23.326;2024-03-08T01:46:19;2.50;;;1.63;;
23658;SDS011;12006;42.666;23.326;2024-03-08T01:49:48;1.80;;;1.30;;
23658;SDS011;12006;42.666;23.326;2024-03-08T01:53:12;1.70;;;1.50;;
23658;SDS011;12006;42.666;23.326;2024-03-08T01:56:37;1.97;;;1.50;;
23658;SDS011;12006;42.666;23.326;2024-03-08T02:00:03;2.07;;;1.87;;
23658;SDS011;12006;42.666;23.326;2024-03-08T02:03:28;1.63;;;1.13;;
23658;SDS011;12006;42.666;23.326;2024-03-08T02:06:53;2.07;;;1.63;;
23658;SDS011;12006;42.666;23.326;2024-03-08T02:10:17;1.90;;;1.70;;
23658;SDS011;12006;42.666;23.326;2024-03-08T02:13:41;2.00;;;1.80;;
23658;SDS011;12006;42.666;23.326;2024-03-08T02:17:05;2.40;;;1.90;;
23658;SDS011;12006;42.666;23.326;2024-03-08T02:20:29;2.50;;;1.67;;
23658;SDS011;12006;42.666;23.326;2024-03-08T02:23:53;2.17;;;1.63;;
23658;SDS011;12006;42.666;23.326;2024-03-08T02:27:22;1.77;;;1.40;;
23658;SDS011;12006;42.666;23.326;2024-03-08T02:30:47;1.47;;;1.30;;
23658;SDS011;12006;42.666;23.326;2024-03-08T02:34:11;1.60;;;1.50;;
23658;SDS011;12006;42.666;23.326;2024-03-08T02:37:35;1.70;;;1.43;;
23658;SDS011;12006;42.666;23.326;2024-03-08T02:40:59;1.90;;;1.27;;
23658;SDS011;12006;42.666;23.326;2024-03-08T02:44:23;1.90;;;1.60;;
23658;SDS011;12006;42.666;23.326;2024-03-08T02:47:47;1.33;;;1.17;;
23658;SDS011;12006;42.666;23.326;2024-03-08T02:51:12;1.40;;;1.30;;
23658;SDS011;12006;42.666;23.326;2024-03-08T02:54:36;1.00;;;0.90;;
23658;SDS011;12006;42.666;23.326;2024-03-08T02:58:03;2.20;;;0.77;;
23658;SDS011;12006;42.666;23.326;2024-03-08T03:01:27;0.80;;;0.80;;
23658;SDS011;12006;42.666;23.326;2024-03-08T03:04:51;0.90;;;0.70;;
23658;SDS011;12006;42.666;23.326;2024-03-08T03:08:15;0.83;;;0.67;;
23658;SDS011;12006;42.666;23.326;2024-03-08T03:11:43;1.93;;;1.00;;
23658;SDS011;12006;42.666;23.326;2024-03-08T03:15:08;0.90;;;0.70;;
23658;SDS011;12006;42.666;23.326;2024-03-08T03:18:32;1.37;;;0.60;;
23658;SDS011;12006;42.666;23.326;2024-03-08T03:21:56;0.83;;;0.80;;
23658;SDS011;12006;42.666;23.326;2024-03-08T03:25:21;0.80;;;0.60;;
23658;SDS011;12006;42.666;23.326;2024-03-08T03:28:46;0.53;;;0.50;;
23658;SDS011;12006;42.666;23.326;2024-03-08T03:32:14;0.63;;;0.60;;
23658;SDS011;12006;42.666;23.326;2024-03-08T03:35:40;1.23;;;0.90;;
23658;SDS011;12006;42.666;23.326;2024-03-08T03:39:08;0.70;;;0.70;;
23658;SDS011;12006;42.666;23.326;2024-03-08T03:42:33;0.80;;;0.73;;
23658;SDS011;12006;42.666;23.326;2024-03-08T03:45:57;0.90;;;0.90;;
23658;SDS011;12006;42.666;23.326;2024-03-08T03:49:21;0.90;;;0.90;;
23658;SDS011;12006;42.666;23.326;2024-03-08T03:52:48;0.80;;;0.80;;
23658;SDS011;12006;42.666;23.326;2024-03-08T03:56:12;1.10;;;1.00;;
23658;SDS011;12006;42.666;23.326;2024-03-08T03:59:37;2.93;;;1.53;;
23658;SDS011;12006;42.666;23.326;2024-03-08T04:03:01;1.73;;;1.20;;
23658;SDS011;12006;42.666;23.326;2024-03-08T04:06:25;0.70;;;0.60;;
23658;SDS011;12006;42.666;23.326;2024-03-08T04:09:49;1.63;;;0.93;;
23658;SDS011;12006;42.666;23.326;2024-03-08T04:13:13;1.10;;;1.00;;
23658;SDS011;12006;42.666;23.326;2024-03-08T04:16:37;1.93;;;1.03;;
23658;SDS011;12006;42.666;23.326;2024-03-08T04:20:02;1.53;;;1.07;;
23658;SDS011;12006;42.666;23.326;2024-03-08T04:23:27;0.63;;;0.63;;
23658;SDS011;12006;42.666;23.326;2024-03-08T04:26:51;1.23;;;0.73;;
23658;SDS011;12006;42.666;23.326;2024-03-08T04:30:17;1.10;;;1.03;;
23658;SDS011;12006;42.666;23.326;2024-03-08T04:33:41;0.77;;;0.77;;
23658;SDS011;12006;42.666;23.326;2024-03-08T04:37:05;1.00;;;0.90;;
23658;SDS011;12006;42.666;23.326;2024-03-08T04:40:30;2.70;;;1.30;;
23658;SDS011;12006;42.666;23.326;2024-03-08T04:43:55;1.30;;;1.07;;
23658;SDS011;12006;42.666;23.326;2024-03-08T04:47:19;1.67;;;1.13;;
23658;SDS011;12006;42.666;23.326;2024-03-08T04:50:43;1.30;;;1.20;;
23658;SDS011;12006;42.666;23.326;2024-03-08T04:54:07;1.63;;;1.23;;
23658;SDS011;12006;42.666;23.326;2024-03-08T04:57:31;1.87;;;1.77;;
23658;SDS011;12006;42.666;23.326;2024-03-08T05:00:55;2.13;;;1.37;;
23658;SDS011;12006;42.666;23.326;2024-03-08T05:04:19;1.57;;;1.40;;
23658;SDS011;12006;42.666;23.326;2024-03-08T05:07:43;2.80;;;2.07;;
23658;SDS011;12006;42.666;23.326;2024-03-08T05:11:07;2.97;;;2.10;;
23658;SDS011;12006;42.666;23.326;2024-03-08T05:14:31;2.83;;;1.63;;
23658;SDS011;12006;42.666;23.326;2024-03-08T05:17:54;2.47;;;2.00;;
23658;SDS011;12006;42.666;23.326;2024-03-08T05:21:18;3.33;;;1.80;;
23658;SDS011;12006;42.666;23.326;2024-03-08T05:24:43;2.27;;;2.03;;
23658;SDS011;12006;42.666;23.326;2024-03-08T05:28:07;2.33;;;2.10;;
23658;SDS011;12006;42.666;23.326;2024-03-08T05:31:52;2.20;;;2.00;;
23658;SDS011;12006;42.666;23.326;2024-03-08T05:35:15;2.17;;;1.97;;
23658;SDS011;12006;42.666;23.326;2024-03-08T05:38:41;2.87;;;2.53;;
23658;SDS011;12006;42.666;23.326;2024-03-08T05:42:06;2.20;;;1.97;;
23658;SDS011;12006;42.666;23.326;2024-03-08T05:45:30;2.20;;;1.73;;
23658;SDS011;12006;42.666;23.326;2024-03-08T05:48:54;3.07;;;2.77;;
23658;SDS011;12006;42.666;23.326;2024-03-08T05:52:18;3.03;;;2.20;;
23658;SDS011;12006;42.666;23.326;2024-03-08T05:55:42;2.40;;;2.20;;
23658;SDS011;12006;42.666;23.326;2024-03-08T05:59:09;4.27;;;2.83;;
23658;SDS011;12006;42.666;23.326;2024-03-08T06:02:36;4.30;;;3.37;;
23658;SDS011;12006;42.666;23.326;2024-03-08T06:06:00;5.07;;;3.17;;
23658;SDS011;12006;42.666;23.326;2024-03-08T06:09:24;4.97;;;3.77;;
23658;SDS011;12006;42.666;23.326;2024-03-08T06:12:48;4.87;;;3.77;;
23658;SDS011;12006;42.666;23.326;2024-03-08T06:16:12;5.17;;;3.83;;
23658;SDS011;12006;42.666;23.326;2024-03-08T06:19:37;6.97;;;4.73;;
23658;SDS011;12006;42.666;23.326;2024-03-08T06:23:00;7.20;;;5.37;;
23658;SDS011;12006;42.666;23.326;2024-03-08T06:26:24;8.83;;;6.23;;
23658;SDS011;12006;42.666;23.326;2024-03-08T06:29:48;11.33;;;6.37;;
23658;SDS011;12006;42.666;23.326;2024-03-08T06:33:12;7.17;;;5.17;;
23658;SDS011;12006;42.666;23.326;2024-03-08T06:36:36;8.00;;;4.73;;
23658;SDS011;12006;42.666;23.326;2024-03-08T06:40:00;6.77;;;5.13;;
23658;SDS011;12006;42.666;23.326;2024-03-08T06:43:28;7.73;;;5.37;;
23658;SDS011;12006;42.666;23.326;2024-03-08T06:46:52;7.00;;;4.27;;
23658;SDS011;12006;42.666;23.326;2024-03-08T06:50:16;8.07;;;4.93;;
23658;SDS011;12006;42.666;23.326;2024-03-08T06:53:40;6.80;;;4.73;;
23658;SDS011;12006;42.666;23.326;2024-03-08T06:57:04;5.20;;;4.10;;
23658;SDS011;12006;42.666;23.326;2024-03-08T07:00:28;6.27;;;3.60;;
23658;SDS011;12006;42.666;23.326;2024-03-08T07:03:53;5.17;;;3.57;;
23658;SDS011;12006;42.666;23.326;2024-03-08T07:07:18;4.30;;;3.47;;
23658;SDS011;12006;42.666;23.326;2024-03-08T07:10:42;8.43;;;3.70;;
23658;SDS011;12006;42.666;23.326;2024-03-08T07:14:06;4.97;;;3.50;;
23658;SDS011;12006;42.666;23.326;2024-03-08T07:17:31;5.53;;;3.47;;
23658;SDS011;12006;42.666;23.326;2024-03-08T07:20:55;3.50;;;3.10;;
23658;SDS011;12006;42.666;23.326;2024-03-08T07:24:20;4.60;;;3.07;;
23658;SDS011;12006;42.666;23.326;2024-03-08T07:27:47;4.27;;;3.33;;
23658;SDS011;12006;42.666;23.326;2024-03-08T07:31:11;5.50;;;3.03;;
23658;SDS011;12006;42.666;23.326;2024-03-08T07:34:44;4.57;;;3.87;;
23658;SDS011;12006;42.666;23.326;2024-03-08T07:38:10;7.53;;;3.97;;
23658;SDS011;12006;42.666;23.326;2024-03-08T07:41:37;6.10;;;3.80;;
23658;SDS011;12006;42.666;23.326;2024-03-08T07:45:02;5.80;;;3.93;;
23658;SDS011;12006;42.666;23.326;2024-03-08T07:48:26;6.43;;;4.07;;
23658;SDS011;12006;42.666;23.326;2024-03-08T07:51:50;5.83;;;4.03;;
23658;SDS011;12006;42.666;23.326;2024-03-08T07:55:14;7.83;;;4.60;;
23658;SDS011;12006;42.666;23.326;2024-03-08T07:58:39;8.13;;;4.37;;
23658;SDS011;12006;42.666;23.326;2024-03-08T08:02:03;5.87;;;3.50;;
23658;SDS011;12006;42.666;23.326;2024-03-08T08:05:27;5.67;;;3.93;;
23658;SDS011;12006;42.666;23.326;2024-03-08T08:08:52;4.67;;;3.53;;
23658;SDS011;12006;42.666;23.326;2024-03-08T08:12:17;4.70;;;3.47;;
23658;SDS011;12006;42.666;23.326;2024-03-08T08:15:41;4.73;;;3.33;;
23658;SDS011;12006;42.666;23.326;2024-03-08T08:19:07;4.00;;;2.93;;
23658;SDS011;12006;42.666;23.326;2024-03-08T08:22:31;5.60;;;3.47;;
23658;SDS011;12006;42.666;23.326;2024-03-08T08:25:55;4.50;;;3.23;;
23658;SDS011;12006;42.666;23.326;2024-03-08T08:29:19;3.27;;;2.97;;
23658;SDS011;12006;42.666;23.326;2024-03-08T08:32:43;4.47;;;3.00;;
23658;SDS011;12006;42.666;23.326;2024-03-08T08:36:08;10.90;;;8.03;;
23658;SDS011;12006;42.666;23.326;2024-03-08T08:39:34;3.80;;;3.33;;
23658;SDS011;12006;42.666;23.326;2024-03-08T08:42:59;4.37;;;3.37;;
23658;SDS011;12006;42.666;23.326;2024-03-08T08:46:22;3.77;;;3.03;;
23658;SDS011;12006;42.666;23.326;2024-03-08T08:49:46;4.13;;;2.80;;
23658;SDS011;12006;42.666;23.326;2024-03-08T08:53:11;4.40;;;3.23;;
23658;SDS011;12006;42.666;23.326;2024-03-08T08:56:36;5.13;;;3.43;;
23658;SDS011;12006;42.666;23.326;2024-03-08T09:00:00;4.50;;;3.17;;
23658;SDS011;12006;42.666;23.326;2024-03-08T09:03:24;3.63;;;3.30;;
23658;SDS011;12006;42.666;23.326;2024-03-08T09:06:49;4.97;;;3.70;;
23658;SDS011;12006;42.666;23.326;2024-03-08T09:10:13;6.43;;;4.13;;
23658;SDS011;12006;42.666;23.326;2024-03-08T09:13:37;6.10;;;4.00;;
23658;SDS011;12006;42.666;23.326;2024-03-08T09:17:01;4.80;;;3.40;;
23658;SDS011;12006;42.666;23.326;2024-03-08T09:20:25;4.80;;;3.70;;
23658;SDS011;12006;42.666;23.326;2024-03-08T09:23:49;7.13;;;3.23;;
23658;SDS011;12006;42.666;23.326;2024-03-08T09:27:13;3.20;;;2.77;;
23658;SDS011;12006;42.666;23.326;2024-03-08T09:30:38;2.97;;;2.47;;
23658;SDS011;12006;42.666;23.326;2024-03-08T09:34:03;2.40;;;2.03;;
23658;SDS011;12006;42.666;23.326;2024-03-08T09:37:27;2.30;;;1.67;;
23658;SDS011;12006;42.666;23.326;2024-03-08T09:40:51;2.03;;;1.60;;
23658;SDS011;12006;42.666;23.326;2024-03-08T09:44:15;2.03;;;1.80;;
23658;SDS011;12006;42.666;23.326;2024-03-08T09:47:42;1.70;;;1.60;;
23658;SDS011;12006;42.666;23.326;2024-03-08T09:51:06;2.50;;;2.13;;
23658;SDS011;12006;42.666;23.326;2024-03-08T09:54:32;2.07;;;1.83;;
23658;SDS011;12006;42.666;23.326;2024-03-08T09:58:00;2.27;;;1.90;;
23658;SDS011;12006;42.666;23.326;2024-03-08T10:01:36;4.17;;;2.07;;
23658;SDS011;12006;42.666;23.326;2024-03-08T10:05:00;1.60;;;1.43;;
23658;SDS011;12006;42.666;23.326;2024-03-08T10:08:28;3.17;;;1.30;;
23658;SDS011;12006;42.666;23.326;2024-03-08T10:11:56;2.17;;;1.90;;
23658;SDS011;12006;42.666;23.326;2024-03-08T10:15:20;2.40;;;1.90;;
23658;SDS011;12006;42.666;23.326;2024-03-08T10:18:47;5.10;;;2.37;;
23658;SDS011;12006;42.666;23.326;2024-03-08T10:22:15;1.73;;;1.60;;
23658;SDS011;12006;42.666;23.326;2024-03-08T10:25:39;2.73;;;2.20;;
23658;SDS011;12006;42.666;23.326;2024-03-08T10:29:03;2.63;;;1.80;;
23658;SDS011;12006;42.666;23.326;2024-03-08T10:32:28;6.83;;;5.43;;
23658;SDS011;12006;42.666;23.326;2024-03-08T10:35:52;2.10;;;1.90;;
23658;SDS011;12006;42.666;23.326;2024-03-08T10:39:23;2.03;;;1.43;;
23658;SDS011;12006;42.666;23.326;2024-03-08T10:42:53;1.70;;;1.30;;
23658;SDS011;12006;42.666;23.326;2024-03-08T10:49:51;2.37;;;1.83;;
23658;SDS011;12006;42.666;23.326;2024-03-08T10:53:17;1.70;;;1.60;;
23658;SDS011;12006;42.666;23.326;2024-03-08T10:56:41;1.63;;;1.20;;
23658;SDS011;12006;42.666;23.326;2024-03-08T11:00:06;1.73;;;1.60;;
23658;SDS011;12006;42.666;23.326;2024-03-08T11:07:10;1.50;;;1.20;;
23658;SDS011;12006;42.666;23.326;2024-03-08T11:10:48;1.60;;;1.37;;
23658;SDS011;12006;42.666;23.326;2024-03-08T11:17:58;1.60;;;1.50;;
23658;SDS011;12006;42.666;23.326;2024-03-08T11:21:29;1.23;;;1.10;;
23658;SDS011;12006;42.666;23.326;2024-03-08T11:25:01;1.77;;;1.30;;
23658;SDS011;12006;42.666;23.326;2024-03-08T11:28:25;1.93;;;1.50;;
23658;SDS011;12006;42.666;23.326;2024-03-08T11:31:52;0.83;;;0.83;;
23658;SDS011;12006;42.666;23.326;2024-03-08T11:35:28;1.17;;;1.07;;
23658;SDS011;12006;42.666;23.326;2024-03-08T11:38:52;2.30;;;1.40;;
23658;SDS011;12006;42.666;23.326;2024-03-08T11:42:18;2.47;;;0.90;;
23658;SDS011;12006;42.666;23.326;2024-03-08T11:45:43;1.30;;;1.20;;
23658;SDS011;12006;42.666;23.326;2024-03-08T11:49:11;1.40;;;1.00;;
23658;SDS011;12006;42.666;23.326;2024-03-08T11:52:36;1.23;;;1.10;;
23658;SDS011;12006;42.666;23.326;2024-03-08T11:56:07;0.80;;;0.80;;
23658;SDS011;12006;42.666;23.326;2024-03-08T11:59:32;1.30;;;1.20;;
23658;SDS011;12006;42.666;23.326;2024-03-08T12:03:06;2.67;;;2.17;;
23658;SDS011;12006;42.666;23.326;2024-03-08T12:06:38;1.40;;;1.30;;
23658;SDS011;12006;42.666;23.326;2024-03-08T12:10:15;1.27;;;1.17;;
23658;SDS011;12006;42.666;23.326;2024-03-08T12:13:39;0.83;;;0.83;;
23658;SDS011;12006;42.666;23.326;2024-03-08T12:17:03;1.40;;;1.27;;
23658;SDS011;12006;42.666;23.326;2024-03-08T12:20:29;0.80;;;0.70;;
23658;SDS011;12006;42.666;23.326;2024-03-08T12:24:09;1.33;;;1.20;;
23658;SDS011;12006;42.666;23.326;2024-03-08T12:27:38;1.87;;;1.00;;
23658;SDS011;12006;42.666;23.326;2024-03-08T12:31:02;1.30;;;1.20;;
23658;SDS011;12006;42.666;23.326;2024-03-08T12:34:26;1.60;;;1.30;;
23658;SDS011;12006;42.666;23.326;2024-03-08T12:37:54;1.37;;;1.27;;
23658;SDS011;12006;42.666;23.326;2024-03-08T12:41:19;1.27;;;1.10;;
23658;SDS011;12006;42.666;23.326;2024-03-08T12:44:44;2.27;;;1.70;;
23658;SDS011;12006;42.666;23.326;2024-03-08T12:48:12;0.93;;;0.90;;
23658;SDS011;12006;42.666;23.326;2024-03-08T12:51:37;1.20;;;1.10;;
23658;SDS011;12006;42.666;23.326;2024-03-08T12:55:02;1.10;;;0.93;;
23658;SDS011;12006;42.666;23.326;2024-03-08T12:58:26;2.27;;;1.50;;
23658;SDS011;12006;42.666;23.326;2024-03-08T13:01:50;1.70;;;1.30;;
23658;SDS011;12006;42.666;23.326;2024-03-08T13:05:16;1.07;;;0.90;;
23658;SDS011;12006;42.666;23.326;2024-03-08T13:08:40;2.77;;;1.30;;
23658;SDS011;12006;42.666;23.326;2024-03-08T13:12:04;1.70;;;1.37;;
23658;SDS011;12006;42.666;23.326;2024-03-08T13:15:30;0.70;;;0.70;;
23658;SDS011;12006;42.666;23.326;2024-03-08T13:18:54;1.60;;;1.40;;
23658;SDS011;12006;42.666;23.326;2024-03-08T13:22:22;2.97;;;2.10;;
23658;SDS011;12006;42.666;23.326;2024-03-08T13:25:46;1.70;;;1.57;;
23658;SDS011;12006;42.666;23.326;2024-03-08T13:29:10;1.10;;;1.00;;
23658;SDS011;12006;42.666;23.326;2024-03-08T13:32:41;1.20;;;1.10;;
23658;SDS011;12006;42.666;23.326;2024-03-08T13:36:07;1.40;;;1.10;;
23658;SDS011;12006;42.666;23.326;2024-03-08T13:39:31;1.70;;;1.23;;
23658;SDS011;12006;42.666;23.326;2024-03-08T13:42:56;1.00;;;0.90;;
23658;SDS011;12006;42.666;23.326;2024-03-08T13:46:20;1.90;;;1.70;;
23658;SDS011;12006;42.666;23.326;2024-03-08T13:49:44;0.93;;;0.83;;
23658;SDS011;12006;42.666;23.326;2024-03-08T13:53:08;2.40;;;1.40;;
23658;SDS011;12006;42.666;23.326;2024-03-08T13:56:32;1.30;;;1.20;;
23658;SDS011;12006;42.666;23.326;2024-03-08T13:59:57;3.67;;;1.30;;
23658;SDS011;12006;42.666;23.326;2024-03-08T14:03:21;5.30;;;2.57;;
23658;SDS011;12006;42.666;23.326;2024-03-08T14:06:45;1.03;;;0.80;;
23658;SDS011;12006;42.666;23.326;2024-03-08T14:10:11;2.27;;;2.07;;
23658;SDS011;12006;42.666;23.326;2024-03-08T14:13:44;3.10;;;2.23;;
23658;SDS011;12006;42.666;23.326;2024-03-08T14:17:09;1.63;;;1.17;;
23658;SDS011;12006;42.666;23.326;2024-03-08T14:20:33;1.40;;;1.10;;
23658;SDS011;12006;42.666;23.326;2024-03-08T14:23:58;1.53;;;1.00;;
23658;SDS011;12006;42.666;23.326;2024-03-08T14:27:22;2.13;;;1.40;;
23658;SDS011;12006;42.666;23.326;2024-03-08T14:30:47;1.50;;;1.40;;
23658;SDS011;12006;42.666;23.326;2024-03-08T14:34:11;1.27;;;1.17;;
23658;SDS011;12006;42.666;23.326;2024-03-08T14:37:36;2.37;;;1.60;;
23658;SDS011;12006;42.666;23.326;2024-03-08T14:41:00;1.97;;;1.23;;
23658;SDS011;12006;42.666;23.326;2024-03-08T14:44:25;1.50;;;1.20;;
23658;SDS011;12006;42.666;23.326;2024-03-08T14:47:49;1.67;;;1.23;;
23658;SDS011;12006;42.666;23.326;2024-03-08T14:51:13;1.53;;;1.43;;
23658;SDS011;12006;42.666;23.326;2024-03-08T14:54:52;2.53;;;2.10;;
23658;SDS011;12006;42.666;23.326;2024-03-08T14:58:16;2.07;;;1.20;;
23658;SDS011;12006;42.666;23.326;2024-03-08T15:01:40;1.40;;;1.20;;
23658;SDS011;12006;42.666;23.326;2024-03-08T15:05:04;1.33;;;1.23;;
23658;SDS011;12006;42.666;23.326;2024-03-08T15:08:33;1.50;;;1.13;;
23658;SDS011;12006;42.666;23.326;2024-03-08T15:12:04;1.77;;;1.30;;
23658;SDS011;12006;42.666;23.326;2024-03-08T15:15:39;2.20;;;1.40;;
23658;SDS011;12006;42.666;23.326;2024-03-08T15:19:05;2.30;;;1.97;;
23658;SDS011;12006;42.666;23.326;2024-03-08T15:22:29;2.97;;;2.03;;
23658;SDS011;12006;42.666;23.326;2024-03-08T15:25:53;3.10;;;2.37;;
23658;SDS011;12006;42.666;23.326;2024-03-08T15:29:20;2.53;;;2.10;;
23658;SDS011;12006;42.666;23.326;2024-03-08T15:32:47;2.50;;;1.70;;
23658;SDS011;12006;42.666;23.326;2024-03-08T15:36:16;5.10;;;1.77;;
23658;SDS011;12006;42.666;23.326;2024-03-08T15:39:42;2.27;;;1.77;;
23658;SDS011;12006;42.666;23.326;2024-03-08T15:43:06;2.53;;;1.87;;
23658;SDS011;12006;42.666;23.326;2024-03-08T15:46:30;4.97;;;2.03;;
23658;SDS011;12006;42.666;23.326;2024-03-08T15:49:54;3.50;;;1.80;;
23658;SDS011;12006;42.666;23.326;2024-03-08T15:53:18;2.27;;;2.07;;
23658;SDS011;12006;42.666;23.326;2024-03-08T15:56:42;2.67;;;1.97;;
23658;SDS011;12006;42.666;23.326;2024-03-08T16:00:06;4.40;;;2.00;;
23658;SDS011;12006;42.666;23.326;2024-03-08T16:03:33;2.90;;;2.00;;
23658;SDS011;12006;42.666;23.326;2024-03-08T16:06:57;2.13;;;1.93;;
23658;SDS011;12006;42.666;23.326;2024-03-08T16:10:21;3.57;;;2.50;;
23658;SDS011;12006;42.666;23.326;2024-03-08T16:13:46;3.13;;;2.60;;
23658;SDS011;12006;42.666;23.326;2024-03-08T16:17:10;2.50;;;2.13;;
23658;SDS011;12006;42.666;23.326;2024-03-08T16:20:35;2.83;;;2.00;;
23658;SDS011;12006;42.666;23.326;2024-03-08T16:23:59;4.13;;;3.00;;
23658;SDS011;12006;42.666;23.326;2024-03-08T16:27:23;4.37;;;2.70;;
23658;SDS011;12006;42.666;23.326;2024-03-08T16:30:50;3.77;;;2.77;;
23658;SDS011;12006;42.666;23.326;2024-03-08T16:34:15;3.13;;;2.17;;
23658;SDS011;12006;42.666;23.326;2024-03-08T16:37:41;4.07;;;2.80;;
23658;SDS011;12006;42.666;23.326;2024-03-08T16:41:12;3.00;;;2.63;;
23658;SDS011;12006;42.666;23.326;2024-03-08T16:44:36;3.43;;;2.70;;
23658;SDS011;12006;42.666;23.326;2024-03-08T16:48:00;4.90;;;3.37;;
23658;SDS011;12006;42.666;23.326;2024-03-08T16:51:24;2.97;;;2.47;;
23658;SDS011;12006;42.666;23.326;2024-03-08T16:54:48;3.37;;;2.20;;
23658;SDS011;12006;42.666;23.326;2024-03-08T16:58:12;2.37;;;2.17;;
23658;SDS011;12006;42.666;23.326;2024-03-08T17:01:37;4.43;;;3.10;;
23658;SDS011;12006;42.666;23.326;2024-03-08T17:05:03;3.47;;;2.33;;
23658;SDS011;12006;42.666;23.326;2024-03-08T17:08:30;4.83;;;3.27;;
23658;SDS011;12006;42.666;23.326;2024-03-08T17:11:54;2.97;;;2.63;;
23658;SDS011;12006;42.666;23.326;2024-03-08T17:15:26;4.87;;;3.10;;
23658;SDS011;12006;42.666;23.326;2024-03-08T17:18:51;3.37;;;2.67;;
23658;SDS011;12006;42.666;23.326;2024-03-08T17:22:15;4.13;;;3.17;;
23658;SDS011;12006;42.666;23.326;2024-03-08T17:25:41;6.10;;;3.20;;
23658;SDS011;12006;42.666;23.326;2024-03-08T17:29:05;3.07;;;2.70;;
23658;SDS011;12006;42.666;23.326;2024-03-08T17:32:42;4.20;;;3.30;;
23658;SDS011;12006;42.666;23.326;2024-03-08T17:36:10;4.57;;;2.47;;
23658;SDS011;12006;42.666;23.326;2024-03-08T17:39:36;4.70;;;3.00;;
23658;SDS011;12006;42.666;23.326;2024-03-08T17:43:05;3.90;;;2.70;;
23658;SDS011;12006;42.666;23.326;2024-03-08T17:46:29;4.97;;;3.47;;
23658;SDS011;12006;42.666;23.326;2024-03-08T17:49:54;4.67;;;3.47;;
23658;SDS011;12006;42.666;23.326;2024-03-08T17:53:19;4.03;;;3.23;;
23658;SDS011;12006;42.666;23.326;2024-03-08T17:56:43;3.63;;;3.23;;
23658;SDS011;12006;42.666;23.326;2024-03-08T18:00:14;5.63;;;3.10;;
23658;SDS011;12006;42.666;23.326;2024-03-08T18:03:38;4.20;;;3.30;;
23658;SDS011;12006;42.666;23.326;2024-03-08T18:07:02;4.73;;;4.10;;
23658;SDS011;12006;42.666;23.326;2024-03-08T18:10:27;3.23;;;2.87;;
23658;SDS011;12006;42.666;23.326;2024-03-08T18:13:51;3.93;;;3.30;;
23658;SDS011;12006;42.666;23.326;2024-03-08T18:17:15;4.20;;;3.00;;
23658;SDS011;12006;42.666;23.326;2024-03-08T18:20:40;4.53;;;3.23;;
23658;SDS011;12006;42.666;23.326;2024-03-08T18:24:04;4.17;;;3.33;;
23658;SDS011;12006;42.666;23.326;2024-03-08T18:27:36;3.57;;;3.27;;
23658;SDS011;12006;42.666;23.326;2024-03-08T18:31:03;4.20;;;3.10;;
23658;SDS011;12006;42.666;23.326;2024-03-08T18:34:27;5.20;;;4.20;;
23658;SDS011;12006;42.666;23.326;2024-03-08T18:37:51;4.03;;;3.23;;
23658;SDS011;12006;42.666;23.326;2024-03-08T18:41:15;3.40;;;2.63;;
23658;SDS011;12006;42.666;23.326;2024-03-08T18:44:39;4.23;;;2.50;;
23658;SDS011;12006;42.666;23.326;2024-03-08T18:48:04;4.07;;;2.77;;
23658;SDS011;12006;42.666;23.326;2024-03-08T18:51:30;2.60;;;2.23;;
23658;SDS011;12006;42.666;23.326;2024-03-08T18:54:54;3.07;;;2.63;;
23658;SDS011;12006;42.666;23.326;2024-03-08T18:58:18;3.53;;;2.33;;
23658;SDS011;12006;42.666;23.326;2024-03-08T19:01:42;2.80;;;2.60;;
23658;SDS011;12006;42.666;23.326;2024-03-08T19:05:07;3.33;;;2.57;;
23658;SDS011;12006;42.666;23.326;2024-03-08T19:08:31;6.60;;;2.67;;
23658;SDS011;12006;42.666;23.326;2024-03-08T19:11:55;3.53;;;2.60;;
23658;SDS011;12006;42.666;23.326;2024-03-08T19:15:22;4.10;;;2.73;;
23658;SDS011;12006;42.666;23.326;2024-03-08T19:18:46;4.83;;;2.40;;
23658;SDS011;12006;42.666;23.326;2024-03-08T19:22:10;3.23;;;2.37;;
23658;SDS011;12006;42.666;23.326;2024-03-08T19:25:35;3.80;;;2.83;;
23658;SDS011;12006;42.666;23.326;2024-03-08T19:29:00;5.87;;;2.83;;
23658;SDS011;12006;42.666;23.326;2024-03-08T19:32:26;2.47;;;2.27;;
23658;SDS011;12006;42.666;23.326;2024-03-08T19:35:52;3.10;;;2.77;;
23658;SDS011;12006;42.666;23.326;2024-03-08T19:39:16;3.20;;;2.73;;
23658;SDS011;12006;42.666;23.326;2024-03-08T19:42:52;3.43;;;2.80;;
23658;SDS011;12006;42.666;23.326;2024-03-08T19:46:16;4.23;;;2.90;;
23658;SDS011;12006;42.666;23.326;2024-03-08T19:49:41;5.63;;;3.40;;
23658;SDS011;12006;42.666;23.326;2024-03-08T19:53:08;5.03;;;3.20;;
23658;SDS011;12006;42.666;23.326;2024-03-08T19:56:32;4.47;;;3.07;;
23658;SDS011;12006;42.666;23.326;2024-03-08T19:59:56;4.27;;;3.47;;
23658;SDS011;12006;42.666;23.326;2024-03-08T20:03:20;3.90;;;3.10;;
23658;SDS011;12006;42.666;23.326;2024-03-08T20:06:45;4.20;;;2.87;;
23658;SDS011;12006;42.666;23.326;2024-03-08T20:10:10;5.83;;;3.20;;
23658;SDS011;12006;42.666;23.326;2024-03-08T20:13:35;4.10;;;3.10;;
23658;SDS011;12006;42.666;23.326;2024-03-08T20:17:00;4.90;;;3.20;;
23658;SDS011;12006;42.666;23.326;2024-03-08T20:20:26;4.37;;;3.57;;
23658;SDS011;12006;42.666;23.326;2024-03-08T20:23:50;8.67;;;3.13;;
23658;SDS011;12006;42.666;23.326;2024-03-08T20:27:14;4.43;;;3.57;;